Stratton, Maine
Current Conditions -  °F | °C
As of 4:52 PM on Saturday 25 Oct 2014 (Local Time) from KBML Reporting Station
Broken Clouds Broken Clouds  
Wind Chill: 57°   Ceiling: 7000
Heat Index: 57°   Visibility: 10mi
Dew Point: 39°   Wind: 3mph
Humidity: 51%   Direction: NA
Pressure: 29.56"   Gusts: NA
Location:  45.14°N, 70.44°W
Report Text: KBML 252052Z AUTO VRB03KT 10SM BKN070 14/04 A2956 RMK AO2 SLP016 T01390039 56013
Loading
Personal Weather Stations






























Interactive Weather Map New forecast layout! Learn more

10-Day Weather Forecast

Advertisements
Track Severe Weather on mobile